createdAt,value
2018-07-30T00:02:30.295Z,25.30
2018-07-30T00:04:59.469Z,25.30
2018-07-30T00:07:28.630Z,25.20
2018-07-30T00:09:57.786Z,25.20
2018-07-30T00:12:26.966Z,25.10
2018-07-30T00:14:56.129Z,25.10
2018-07-30T00:17:25.258Z,25.10
2018-07-30T00:19:54.433Z,25.10
2018-07-30T00:22:23.577Z,25.10
2018-07-30T00:27:21.875Z,25.00
2018-07-30T00:29:51.099Z,24.70
2018-07-30T00:32:23.310Z,24.80
2018-07-30T00:34:52.452Z,24.90
2018-07-30T00:37:21.629Z,24.80
2018-07-30T00:42:19.861Z,24.70
2018-07-30T00:44:49.026Z,24.70
2018-07-30T00:47:23.063Z,24.70
2018-07-30T00:49:52.213Z,24.70
2018-07-30T00:52:21.353Z,24.60
2018-07-30T00:54:50.552Z,24.60
2018-07-30T00:57:19.745Z,24.60
2018-07-30T00:59:48.897Z,24.60
2018-07-30T01:02:24.137Z,24.50
2018-07-30T01:04:53.295Z,24.50
2018-07-30T01:07:22.435Z,24.30
2018-07-30T01:09:51.605Z,23.20
2018-07-30T01:12:20.759Z,23.00
2018-07-30T01:14:49.937Z,23.80
2018-07-30T01:17:19.129Z,24.10
2018-07-30T01:19:48.361Z,24.10
2018-07-30T01:22:17.508Z,24.10
2018-07-30T01:24:46.694Z,24.10
2018-07-30T01:29:45.046Z,24.10
2018-07-30T01:32:24.597Z,24.00
2018-07-30T01:34:53.758Z,24.00
2018-07-30T01:37:22.921Z,24.00
2018-07-30T01:40:20.801Z,24.00
2018-07-30T01:42:49.952Z,24.00
2018-07-30T01:45:19.141Z,23.90
2018-07-30T01:47:48.324Z,23.90
2018-07-30T01:50:17.536Z,23.90
2018-07-30T01:52:46.693Z,23.90
2018-07-30T01:55:15.885Z,23.90
2018-07-30T01:57:45.033Z,23.80
2018-07-30T02:00:14.248Z,23.80
2018-07-30T02:02:44.293Z,23.80
2018-07-30T02:05:13.456Z,23.80
2018-07-30T02:07:43.290Z,23.80
2018-07-30T02:10:12.957Z,23.70
2018-07-30T02:12:42.154Z,23.70
2018-07-30T02:15:12.501Z,23.70
2018-07-30T02:17:41.645Z,23.70
2018-07-30T02:20:10.802Z,23.60
2018-07-30T02:22:39.976Z,23.60
2018-07-30T02:25:09.644Z,23.60
2018-07-30T02:27:38.852Z,23.30
2018-07-30T02:30:09.314Z,22.80
2018-07-30T02:32:38.703Z,22.90
2018-07-30T02:35:22.571Z,23.00
2018-07-30T02:37:51.728Z,23.20
2018-07-30T02:40:20.905Z,23.30
2018-07-30T02:42:50.092Z,23.30
2018-07-30T02:45:19.335Z,23.30
2018-07-30T02:47:48.510Z,23.20
2018-07-30T02:50:24.049Z,23.20
2018-07-30T02:52:53.194Z,23.20
2018-07-30T02:55:22.338Z,23.20
2018-07-30T02:57:51.522Z,23.10
2018-07-30T03:02:49.930Z,23.10
2018-07-30T03:05:19.773Z,22.60
2018-07-30T03:07:48.931Z,22.40
2018-07-30T03:10:18.093Z,22.70
2018-07-30T03:12:47.286Z,22.80
2018-07-30T03:15:16.425Z,22.90
2018-07-30T03:18:32.897Z,22.90
2018-07-30T03:21:02.052Z,22.90
2018-07-30T03:23:31.217Z,22.40
2018-07-30T03:26:00.394Z,22.70
2018-07-30T03:28:29.652Z,22.80
2018-07-30T03:30:58.814Z,22.80
2018-07-30T03:33:28.031Z,22.80
2018-07-30T03:35:57.215Z,22.70
2018-07-30T03:38:26.354Z,22.70
2018-07-30T03:40:55.537Z,22.70
2018-07-30T03:43:24.758Z,22.70
2018-07-30T03:46:20.978Z,22.70
2018-07-30T03:48:50.130Z,22.50
2018-07-30T03:51:19.282Z,21.80
2018-07-30T03:53:48.477Z,21.90
2018-07-30T03:56:17.646Z,21.40
2018-07-30T03:58:46.878Z,21.80
2018-07-30T04:01:16.074Z,22.20
2018-07-30T04:03:45.269Z,22.30
2018-07-30T04:06:14.507Z,22.40
2018-07-30T04:08:43.634Z,22.40
2018-07-30T04:11:12.939Z,22.30
2018-07-30T04:13:42.098Z,21.80
2018-07-30T04:16:11.273Z,21.20
2018-07-30T04:18:40.416Z,21.70
2018-07-30T04:21:09.581Z,22.10
2018-07-30T04:23:38.821Z,22.20
2018-07-30T04:26:07.976Z,22.30
2018-07-30T04:28:37.516Z,22.30
2018-07-30T04:31:06.699Z,22.10
2018-07-30T04:33:35.861Z,21.60
2018-07-30T04:36:05.058Z,21.30
2018-07-30T04:38:34.242Z,20.80
2018-07-30T04:41:03.398Z,20.90
2018-07-30T04:43:32.541Z,21.70
2018-07-30T04:46:01.749Z,22.00
2018-07-30T04:48:31.014Z,22.00
2018-07-30T04:51:00.197Z,22.10
2018-07-30T04:53:29.418Z,21.90
2018-07-30T04:55:58.561Z,22.10
2018-07-30T04:58:27.860Z,22.00
2018-07-30T05:00:57.109Z,22.00
2018-07-30T05:03:26.261Z,22.20
2018-07-30T05:05:55.508Z,22.10
2018-07-30T05:08:24.709Z,22.00
2018-07-30T05:10:53.981Z,21.50
2018-07-30T05:13:23.240Z,21.20
2018-07-30T05:15:52.402Z,21.00
2018-07-30T05:18:21.679Z,21.00
2018-07-30T05:20:50.878Z,21.20
2018-07-30T05:24:39.829Z,21.20
2018-07-30T05:27:09.013Z,21.20
2018-07-30T05:29:38.618Z,21.90
2018-07-30T05:32:22.432Z,22.00
2018-07-30T05:34:51.597Z,21.50
2018-07-30T05:37:24.243Z,21.80
2018-07-30T05:39:53.632Z,21.90
2018-07-30T05:42:22.873Z,21.90
2018-07-30T05:44:52.092Z,21.90
2018-07-30T05:47:21.249Z,21.60
2018-07-30T05:49:50.446Z,21.60
2018-07-30T05:52:19.640Z,22.00
2018-07-30T05:54:48.798Z,22.10
2018-07-30T05:57:17.956Z,22.10
2018-07-30T05:59:47.315Z,22.30
2018-07-30T06:02:23.988Z,22.40
2018-07-30T06:04:53.214Z,22.50
2018-07-30T06:07:22.377Z,22.60
2018-07-30T06:09:51.626Z,22.70
2018-07-30T06:12:20.800Z,22.80
2018-07-30T06:14:49.953Z,22.90
2018-07-30T06:17:19.135Z,22.90
2018-07-30T06:19:48.345Z,22.90
2018-07-30T06:24:46.551Z,22.60
2018-07-30T06:27:15.727Z,22.70
2018-07-30T06:29:45.086Z,22.70
2018-07-30T06:34:00.925Z,22.70
2018-07-30T06:36:30.104Z,23.00
2018-07-30T06:38:59.312Z,23.30
2018-07-30T06:41:28.501Z,23.30
2018-07-30T06:43:57.809Z,23.20
2018-07-30T06:49:17.901Z,23.70
2018-07-30T06:51:47.245Z,23.80
2018-07-30T06:54:16.388Z,23.90
2018-07-30T06:56:45.572Z,24.10
2018-07-30T06:59:14.737Z,24.10
2018-07-30T07:01:43.942Z,24.30
2018-07-30T07:04:13.191Z,24.50
2018-07-30T07:06:42.338Z,24.70
2018-07-30T07:09:11.837Z,24.80
2018-07-30T07:11:41.083Z,24.80
2018-07-30T07:14:10.285Z,24.80
2018-07-30T07:16:39.554Z,24.90
2018-07-30T07:19:08.726Z,25.00
2018-07-30T07:21:37.905Z,25.00
2018-07-30T07:24:07.153Z,25.10
2018-07-30T07:26:36.385Z,25.30
2018-07-30T07:29:22.462Z,25.30
2018-07-30T07:34:36.351Z,25.60
2018-07-30T07:37:05.821Z,25.70
2018-07-30T07:39:34.976Z,25.90
2018-07-30T07:42:04.225Z,26.00
2018-07-30T07:44:33.397Z,26.10
2018-07-30T07:47:02.591Z,26.20
2018-07-30T07:49:31.783Z,26.40
2018-07-30T07:52:01.001Z,26.50
2018-07-30T07:54:30.290Z,26.60
2018-07-30T07:56:59.478Z,26.50
2018-07-30T07:59:28.638Z,26.80
2018-07-30T08:02:22.750Z,26.70
2018-07-30T08:04:51.941Z,26.80
2018-07-30T08:07:21.093Z,26.80
2018-07-30T08:09:50.382Z,26.90
2018-07-30T08:12:19.479Z,27.10
2018-07-30T08:14:48.625Z,27.20
2018-07-30T08:17:17.813Z,27.50
2018-07-30T08:19:46.979Z,27.80
2018-07-30T08:22:16.156Z,27.70
2018-07-30T08:24:45.367Z,27.70
2018-07-30T08:27:14.533Z,27.80
2018-07-30T08:29:43.834Z,27.90
2018-07-30T08:32:25.245Z,27.90
2018-07-30T08:34:54.523Z,27.90
2018-07-30T08:37:23.666Z,28.10
2018-07-30T08:40:21.658Z,28.20
2018-07-30T08:42:50.817Z,28.30
2018-07-30T08:45:21.225Z,27.80
2018-07-30T08:47:50.506Z,28.00
2018-07-30T08:50:19.665Z,28.20
2018-07-30T08:55:49.323Z,28.30
2018-07-30T08:58:18.474Z,28.40
2018-07-30T09:00:47.705Z,28.70
2018-07-30T09:03:16.901Z,28.80
2018-07-30T09:05:46.063Z,28.90
2018-07-30T09:08:15.193Z,29.00
2018-07-30T09:10:44.382Z,29.10
2018-07-30T09:13:13.601Z,29.30
2018-07-30T09:15:42.757Z,29.50
2018-07-30T09:18:11.967Z,29.50
2018-07-30T09:20:41.218Z,29.60
2018-07-30T09:23:10.371Z,29.70
2018-07-30T09:25:39.626Z,29.60
2018-07-30T09:28:08.793Z,29.90
2018-07-30T09:30:37.941Z,30.00
2018-07-30T09:33:07.360Z,30.10
2018-07-30T09:35:36.514Z,30.20
2018-07-30T09:38:05.675Z,30.10
2018-07-30T09:40:34.865Z,30.20
2018-07-30T09:43:04.014Z,30.30
2018-07-30T09:45:33.282Z,30.40
2018-07-30T09:48:02.536Z,30.50
2018-07-30T09:50:31.679Z,30.70
2018-07-30T09:53:00.872Z,30.60
2018-07-30T09:55:30.051Z,30.80
2018-07-30T09:57:59.190Z,30.80
2018-07-30T10:00:33.673Z,31.00
2018-07-30T10:03:21.985Z,31.10
2018-07-30T10:05:51.172Z,30.70
2018-07-30T10:08:20.327Z,31.10
2018-07-30T10:10:49.534Z,31.30
2018-07-30T10:13:18.716Z,31.50
2018-07-30T10:15:47.927Z,31.70
2018-07-30T10:18:17.177Z,31.80
2018-07-30T10:20:46.330Z,31.80
2018-07-30T10:23:15.683Z,31.90
2018-07-30T10:25:44.829Z,31.70
2018-07-30T10:28:13.993Z,31.70
2018-07-30T10:33:43.718Z,31.70
2018-07-30T10:36:12.879Z,31.80
2018-07-30T10:38:42.202Z,32.10
2018-07-30T10:41:11.958Z,31.90
2018-07-30T10:43:41.102Z,32.10
2018-07-30T10:48:39.261Z,32.40
2018-07-30T10:51:08.409Z,32.40
2018-07-30T10:53:37.558Z,32.60
2018-07-30T10:56:06.926Z,32.70
2018-07-30T10:58:36.078Z,33.00
2018-07-30T11:01:05.247Z,32.90
2018-07-30T11:03:34.414Z,32.40
2018-07-30T11:06:03.549Z,32.50
2018-07-30T11:08:32.693Z,33.00
2018-07-30T11:11:01.883Z,33.20
2018-07-30T11:13:31.094Z,33.20
2018-07-30T11:16:00.299Z,33.30
2018-07-30T11:18:29.497Z,33.30
2018-07-30T11:20:58.800Z,33.60
2018-07-30T11:23:28.023Z,33.60
2018-07-30T11:25:57.197Z,33.70
2018-07-30T11:28:26.334Z,33.80
2018-07-30T11:30:55.485Z,33.70
2018-07-30T11:33:24.705Z,33.70
2018-07-30T11:35:53.906Z,33.90
2018-07-30T11:38:23.052Z,34.10
2018-07-30T11:41:21.687Z,34.30
2018-07-30T11:43:51.321Z,34.20
2018-07-30T11:46:20.482Z,33.90
2018-07-30T11:48:49.664Z,34.10
2018-07-30T11:51:18.829Z,34.30
2018-07-30T11:53:47.960Z,34.10
2018-07-30T11:56:17.144Z,34.30
2018-07-30T11:58:46.396Z,34.30
2018-07-30T12:01:15.599Z,34.50
2018-07-30T12:03:44.737Z,34.50
2018-07-30T12:06:13.890Z,34.80
2018-07-30T12:08:43.131Z,35.10
2018-07-30T12:11:12.261Z,34.90
2018-07-30T12:13:41.425Z,34.80
2018-07-30T12:16:10.588Z,35.20
2018-07-30T12:18:39.740Z,35.40
2018-07-30T12:21:08.920Z,35.30
2018-07-30T12:23:38.119Z,35.50
2018-07-30T12:26:07.450Z,35.60
2018-07-30T12:28:36.596Z,35.80
2018-07-30T12:31:05.807Z,35.50
2018-07-30T12:33:35.005Z,35.50
2018-07-30T12:36:23.529Z,35.70
2018-07-30T12:38:52.723Z,36.00
2018-07-30T12:41:21.914Z,36.10
2018-07-30T12:43:51.141Z,35.90
2018-07-30T12:46:20.349Z,36.40
2018-07-30T12:48:49.587Z,36.50
2018-07-30T12:51:18.769Z,36.40
2018-07-30T12:53:47.909Z,36.60
2018-07-30T12:56:17.066Z,36.10
2018-07-30T12:58:46.233Z,36.30
2018-07-30T13:01:15.410Z,36.40
2018-07-30T13:06:44.956Z,35.30
2018-07-30T13:09:14.114Z,36.20
2018-07-30T13:11:43.266Z,36.40
2018-07-30T13:14:12.450Z,35.50
2018-07-30T13:16:41.619Z,35.90
2018-07-30T13:19:10.964Z,35.70
2018-07-30T13:21:40.140Z,36.10
2018-07-30T13:24:09.281Z,35.20
2018-07-30T13:26:38.529Z,35.40
2018-07-30T13:29:07.642Z,35.00
2018-07-30T13:34:36.578Z,35.40
2018-07-30T13:37:05.894Z,34.90
2018-07-30T13:39:35.118Z,35.30
2018-07-30T13:42:04.739Z,34.50
2018-07-30T13:44:33.906Z,35.80
2018-07-30T13:47:03.058Z,36.10
2018-07-30T13:49:32.289Z,36.50
2018-07-30T13:52:01.571Z,36.90
2018-07-30T13:54:30.795Z,36.00
2018-07-30T13:56:59.937Z,36.10
2018-07-30T13:59:29.101Z,36.30
2018-07-30T14:02:23.616Z,36.40
2018-07-30T14:04:52.756Z,36.00
2018-07-30T14:07:21.914Z,36.10
2018-07-30T14:09:51.098Z,36.20
2018-07-30T14:12:20.350Z,36.10
2018-07-30T14:14:49.489Z,36.10
2018-07-30T14:17:18.713Z,36.80
2018-07-30T14:19:47.911Z,37.30
2018-07-30T14:22:17.521Z,37.50
2018-07-30T14:24:46.985Z,37.80
2018-07-30T14:27:16.133Z,38.00
2018-07-30T14:29:45.333Z,37.50
2018-07-30T14:32:24.465Z,37.80
2018-07-30T14:34:53.642Z,38.20
2018-07-30T14:37:22.793Z,38.40
2018-07-30T14:39:52.178Z,38.20
2018-07-30T14:42:21.344Z,38.70
2018-07-30T14:44:50.504Z,38.90
2018-07-30T14:47:19.696Z,38.90
2018-07-30T14:49:48.857Z,37.80
2018-07-30T14:52:18.061Z,37.70
2018-07-30T14:54:47.533Z,37.70
2018-07-30T14:57:16.748Z,38.00
2018-07-30T14:59:46.161Z,37.70
2018-07-30T15:02:23.295Z,38.00
2018-07-30T15:04:52.455Z,38.60
2018-07-30T15:07:21.687Z,38.70
2018-07-30T15:12:51.489Z,38.90
2018-07-30T15:15:20.650Z,38.20
2018-07-30T15:17:49.789Z,39.00
2018-07-30T15:20:18.979Z,39.00
2018-07-30T15:25:17.325Z,38.00
2018-07-30T15:27:46.501Z,38.30
2018-07-30T15:30:15.688Z,38.00
2018-07-30T15:32:44.843Z,37.00
2018-07-30T15:35:14.012Z,37.40
2018-07-30T15:40:43.681Z,37.30
2018-07-30T15:43:12.836Z,37.60
2018-07-30T15:45:41.978Z,37.20
2018-07-30T15:48:11.174Z,36.70
2018-07-30T15:50:40.339Z,36.70
2018-07-30T15:53:09.502Z,37.70
2018-07-30T15:55:38.781Z,37.30
2018-07-30T15:58:07.938Z,37.50
2018-07-30T16:00:37.107Z,37.90
2018-07-30T16:03:06.384Z,38.50
2018-07-30T16:05:35.686Z,38.20
2018-07-30T16:08:04.865Z,38.60
2018-07-30T16:10:34.061Z,38.80
2018-07-30T16:13:03.234Z,38.80
2018-07-30T16:15:32.413Z,38.40
2018-07-30T16:18:01.618Z,38.90
2018-07-30T16:20:30.748Z,39.50
2018-07-30T16:22:59.906Z,39.70
2018-07-30T16:25:29.666Z,40.20
2018-07-30T16:27:58.825Z,40.90
2018-07-30T16:30:28.043Z,40.80
2018-07-30T16:35:26.200Z,40.40
2018-07-30T16:37:55.362Z,41.00
2018-07-30T16:40:24.528Z,41.00
2018-07-30T16:45:22.921Z,40.30
2018-07-30T16:47:52.077Z,40.70
2018-07-30T16:50:21.236Z,40.40
2018-07-30T16:52:50.405Z,39.80
2018-07-30T16:55:19.594Z,40.20
2018-07-30T16:57:49.378Z,39.50
2018-07-30T17:00:18.542Z,40.50
2018-07-30T17:02:47.714Z,40.80
2018-07-30T17:07:48.008Z,41.30
2018-07-30T17:10:17.289Z,40.40
2018-07-30T17:12:46.506Z,40.40
2018-07-30T17:15:15.698Z,40.80
2018-07-30T17:17:44.964Z,40.70
2018-07-30T17:20:14.776Z,41.40
2018-07-30T17:22:44.329Z,41.30
2018-07-30T17:25:13.468Z,40.70
2018-07-30T17:27:42.620Z,41.20
2018-07-30T17:30:23.757Z,41.50
2018-07-30T17:32:57.349Z,41.90
2018-07-30T17:35:26.538Z,42.00
2018-07-30T17:37:55.755Z,41.90
2018-07-30T17:40:24.948Z,41.70
2018-07-30T17:42:54.225Z,42.00
2018-07-30T17:45:23.405Z,41.70
2018-07-30T17:47:52.599Z,41.90
2018-07-30T17:50:21.781Z,41.90
2018-07-30T17:52:50.969Z,41.30
2018-07-30T17:55:20.190Z,41.80
2018-07-30T17:57:49.346Z,41.90
2018-07-30T18:00:18.810Z,41.90
2018-07-30T18:02:48.069Z,41.50
2018-07-30T18:05:19.189Z,41.50
2018-07-30T18:07:50.089Z,41.30
2018-07-30T18:10:24.398Z,41.30
2018-07-30T18:12:53.615Z,41.20
2018-07-30T18:15:22.838Z,40.90
2018-07-30T18:17:52.001Z,41.00
2018-07-30T18:20:22.058Z,41.00
2018-07-30T18:22:51.229Z,40.90
2018-07-30T18:25:20.486Z,40.70
2018-07-30T18:27:49.704Z,40.50
2018-07-30T18:30:18.983Z,40.50
2018-07-30T18:37:46.286Z,40.10
2018-07-30T18:40:25.232Z,39.80
2018-07-30T18:42:54.590Z,39.30
2018-07-30T18:45:23.777Z,39.00
2018-07-30T18:47:52.980Z,38.60
2018-07-30T18:50:22.149Z,38.50
2018-07-30T18:52:51.341Z,38.40
2018-07-30T18:55:20.573Z,38.70
2018-07-30T18:57:50.103Z,38.70
2018-07-30T19:00:19.271Z,38.60
2018-07-30T19:02:48.521Z,38.40
2018-07-30T19:07:46.662Z,38.20
2018-07-30T19:10:15.861Z,38.00
2018-07-30T19:12:45.037Z,37.90
2018-07-30T19:15:14.420Z,37.80
2018-07-30T19:17:43.630Z,37.60
2018-07-30T19:20:12.886Z,37.50
2018-07-30T19:22:42.368Z,37.40
2018-07-30T19:25:11.598Z,37.30
2018-07-30T19:27:40.800Z,37.20
2018-07-30T19:30:10.000Z,37.10
2018-07-30T19:32:39.206Z,36.90
2018-07-30T19:35:25.084Z,36.80
2018-07-30T19:37:54.300Z,36.50
2018-07-30T19:40:23.514Z,36.50
2018-07-30T19:42:52.807Z,36.40
2018-07-30T19:45:22.262Z,36.20
2018-07-30T19:50:51.387Z,35.50
2018-07-30T19:53:20.699Z,35.60
2018-07-30T19:55:49.896Z,35.10
2018-07-30T19:58:19.307Z,34.50
2018-07-30T20:00:48.373Z,34.20
2018-07-30T20:03:24.391Z,34.10
2018-07-30T20:05:53.553Z,34.30
2018-07-30T20:08:22.754Z,34.60
2018-07-30T20:10:51.983Z,34.60
2018-07-30T20:13:25.051Z,34.60
2018-07-30T20:15:54.600Z,34.50
2018-07-30T20:18:23.914Z,34.40
2018-07-30T20:20:53.793Z,34.10
2018-07-30T20:23:23.000Z,33.50
2018-07-30T20:25:52.168Z,33.60
2018-07-30T20:33:51.479Z,33.60
2018-07-30T20:36:26.432Z,33.50
2018-07-30T20:41:24.984Z,33.30
2018-07-30T20:43:54.156Z,33.20
2018-07-30T20:46:24.106Z,33.10
2018-07-30T20:48:53.305Z,32.90
2018-07-30T20:51:22.472Z,32.90
2018-07-30T20:53:51.676Z,32.80
2018-07-30T20:56:20.846Z,32.70
2018-07-30T20:58:50.010Z,32.40
2018-07-30T21:01:19.233Z,32.40
2018-07-30T21:03:48.968Z,32.10
2018-07-30T21:06:24.497Z,32.10
2018-07-30T21:08:53.643Z,31.70
2018-07-30T21:11:22.856Z,30.80
2018-07-30T21:19:21.610Z,31.40
2018-07-30T21:21:50.792Z,31.40
2018-07-30T21:24:25.908Z,31.30
2018-07-30T21:26:55.181Z,31.20
2018-07-30T21:29:24.325Z,31.20
2018-07-30T21:37:47.814Z,30.90
2018-07-30T21:40:16.974Z,30.80
2018-07-30T21:42:46.157Z,30.60
2018-07-30T21:45:15.337Z,30.50
2018-07-30T21:47:45.241Z,30.50
2018-07-30T21:50:24.965Z,30.40
2018-07-30T21:52:54.132Z,30.30
2018-07-30T21:55:23.278Z,30.20
2018-07-30T21:57:52.478Z,30.20
2018-07-30T22:02:56.326Z,29.80
2018-07-30T22:05:25.564Z,29.90
2018-07-30T22:07:54.767Z,29.80
2018-07-30T22:10:25.450Z,29.80
2018-07-30T22:12:55.659Z,29.70
2018-07-30T22:15:25.085Z,29.60
2018-07-30T22:17:54.259Z,29.60
2018-07-30T22:20:25.154Z,29.50
2018-07-30T22:22:54.387Z,29.40
2018-07-30T22:25:23.642Z,29.20
2018-07-30T22:27:52.846Z,28.90
2018-07-30T22:30:22.111Z,29.10
2018-07-30T22:32:51.370Z,29.00
2018-07-30T22:35:24.459Z,29.00
2018-07-30T22:38:22.951Z,29.00
2018-07-30T22:43:21.321Z,28.80
2018-07-30T22:45:50.574Z,28.80
2018-07-30T22:48:25.429Z,28.80
2018-07-30T22:50:54.619Z,28.70
2018-07-30T22:53:23.966Z,28.60
2018-07-30T22:55:53.383Z,28.60
2018-07-30T22:58:22.566Z,28.50
2018-07-30T23:03:20.763Z,28.40
2018-07-30T23:05:49.933Z,28.30
2018-07-30T23:10:48.230Z,28.20
2018-07-30T23:13:17.435Z,28.10
2018-07-30T23:15:46.626Z,28.10
2018-07-30T23:18:15.853Z,28.00
2018-07-30T23:23:45.153Z,27.60
2018-07-30T23:26:14.353Z,27.60
2018-07-30T23:28:43.542Z,27.30
2018-07-30T23:31:12.780Z,27.40
2018-07-30T23:33:41.983Z,27.20
2018-07-30T23:36:23.658Z,27.40
2018-07-30T23:38:52.875Z,27.40
2018-07-30T23:41:22.076Z,27.40
2018-07-30T23:43:51.397Z,27.40
2018-07-30T23:46:20.716Z,27.30
2018-07-30T23:48:50.473Z,27.00
2018-07-30T23:51:19.743Z,26.10
2018-07-30T23:53:48.961Z,26.60
2018-07-30T23:56:18.596Z,26.90
2018-07-30T23:58:47.822Z,26.90
